sensor_id;sensor_type;location;lat;lon;timestamp;pressure;altitude;pressure_sealevel;temperature;humidity
7768;BME280;3928;42.626;23.382;2023-04-27T00:01:22;93839.88;;;10.85;48.96
7768;BME280;3928;42.626;23.382;2023-04-27T00:03:49;93835.28;;;10.64;49.79
7768;BME280;3928;42.626;23.382;2023-04-27T00:06:16;93837.75;;;10.68;48.95
7768;BME280;3928;42.626;23.382;2023-04-27T00:08:44;93836.13;;;10.66;48.81
7768;BME280;3928;42.626;23.382;2023-04-27T00:11:11;93853.13;;;10.70;49.02
7768;BME280;3928;42.626;23.382;2023-04-27T00:13:38;93798.38;;;9.96;50.00
7768;BME280;3928;42.626;23.382;2023-04-27T00:16:05;93836.72;;;10.40;49.75
7768;BME280;3928;42.626;23.382;2023-04-27T00:18:32;93846.47;;;10.61;49.05
7768;BME280;3928;42.626;23.382;2023-04-27T00:20:59;93844.41;;;10.75;48.72
7768;BME280;3928;42.626;23.382;2023-04-27T00:23:25;93835.81;;;10.78;48.87
7768;BME280;3928;42.626;23.382;2023-04-27T00:25:55;93848.97;;;10.64;49.32
7768;BME280;3928;42.626;23.382;2023-04-27T00:28:21;93849.97;;;10.59;48.50
7768;BME280;3928;42.626;23.382;2023-04-27T00:30:48;93828.97;;;10.43;48.67
7768;BME280;3928;42.626;23.382;2023-04-27T00:33:18;93848.44;;;10.50;48.51
7768;BME280;3928;42.626;23.382;2023-04-27T00:35:45;93850.34;;;10.43;48.58
7768;BME280;3928;42.626;23.382;2023-04-27T00:38:12;93843.97;;;10.21;48.90
7768;BME280;3928;42.626;23.382;2023-04-27T00:40:39;93847.16;;;10.32;48.93
7768;BME280;3928;42.626;23.382;2023-04-27T00:43:07;93831.06;;;10.25;49.59
7768;BME280;3928;42.626;23.382;2023-04-27T00:45:38;93845.56;;;10.27;48.88
7768;BME280;3928;42.626;23.382;2023-04-27T00:48:06;93852.34;;;10.31;49.32
7768;BME280;3928;42.626;23.382;2023-04-27T00:50:34;93840.59;;;10.19;49.63
7768;BME280;3928;42.626;23.382;2023-04-27T00:53:04;93857.47;;;10.29;49.14
7768;BME280;3928;42.626;23.382;2023-04-27T00:55:31;93865.78;;;10.40;48.78
7768;BME280;3928;42.626;23.382;2023-04-27T00:57:58;93870.41;;;10.24;48.96
7768;BME280;3928;42.626;23.382;2023-04-27T01:00:26;93863.44;;;10.30;49.63
7768;BME280;3928;42.626;23.382;2023-04-27T01:02:54;93867.53;;;10.38;48.99
7768;BME280;3928;42.626;23.382;2023-04-27T01:05:21;93875.75;;;10.14;49.54
7768;BME280;3928;42.626;23.382;2023-04-27T01:07:49;93874.03;;;10.14;49.71
7768;BME280;3928;42.626;23.382;2023-04-27T01:10:16;93879.78;;;9.85;50.29
7768;BME280;3928;42.626;23.382;2023-04-27T01:12:43;93849.44;;;9.65;50.36
7768;BME280;3928;42.626;23.382;2023-04-27T01:15:10;93879.09;;;9.77;50.21
7768;BME280;3928;42.626;23.382;2023-04-27T01:17:39;93847.63;;;9.71;50.58
7768;BME280;3928;42.626;23.382;2023-04-27T01:20:08;93870.22;;;9.92;50.34
7768;BME280;3928;42.626;23.382;2023-04-27T01:22:35;93876.25;;;9.91;49.92
7768;BME280;3928;42.626;23.382;2023-04-27T01:25:04;93870.69;;;10.11;49.63
7768;BME280;3928;42.626;23.382;2023-04-27T01:27:32;93870.69;;;10.11;49.66
7768;BME280;3928;42.626;23.382;2023-04-27T01:29:59;93873.09;;;10.17;48.78
7768;BME280;3928;42.626;23.382;2023-04-27T01:32:26;93870.94;;;10.00;49.07
7768;BME280;3928;42.626;23.382;2023-04-27T01:34:53;93882.03;;;10.01;49.37
7768;BME280;3928;42.626;23.382;2023-04-27T01:37:20;93875.41;;;9.90;49.55
7768;BME280;3928;42.626;23.382;2023-04-27T01:39:46;93871.03;;;9.95;49.36
7768;BME280;3928;42.626;23.382;2023-04-27T01:42:15;93841.66;;;9.70;50.09
7768;BME280;3928;42.626;23.382;2023-04-27T01:44:42;93869.81;;;9.70;50.41
7768;BME280;3928;42.626;23.382;2023-04-27T01:47:09;93883.22;;;9.84;49.67
7768;BME280;3928;42.626;23.382;2023-04-27T01:49:35;93884.34;;;9.71;49.61
7768;BME280;3928;42.626;23.382;2023-04-27T01:52:03;93885.03;;;9.79;49.33
7768;BME280;3928;42.626;23.382;2023-04-27T01:54:29;93884.22;;;9.77;49.86
7768;BME280;3928;42.626;23.382;2023-04-27T01:56:56;93885.56;;;9.93;49.08
7768;BME280;3928;42.626;23.382;2023-04-27T01:59:25;93875.47;;;9.87;48.83
7768;BME280;3928;42.626;23.382;2023-04-27T02:01:53;93876.31;;;9.88;49.74
7768;BME280;3928;42.626;23.382;2023-04-27T02:04:20;93876.59;;;9.74;49.10
7768;BME280;3928;42.626;23.382;2023-04-27T02:06:47;93889.63;;;9.63;49.52
7768;BME280;3928;42.626;23.382;2023-04-27T02:09:14;93888.84;;;9.58;50.40
7768;BME280;3928;42.626;23.382;2023-04-27T02:11:42;93887.41;;;9.45;49.68
7768;BME280;3928;42.626;23.382;2023-04-27T02:14:09;93891.34;;;9.63;49.44
7768;BME280;3928;42.626;23.382;2023-04-27T02:16:37;93901.00;;;9.49;50.02
7768;BME280;3928;42.626;23.382;2023-04-27T02:19:04;93877.25;;;9.41;50.24
7768;BME280;3928;42.626;23.382;2023-04-27T02:21:31;93897.41;;;9.57;49.28
7768;BME280;3928;42.626;23.382;2023-04-27T02:23:58;93888.22;;;9.49;49.46
7768;BME280;3928;42.626;23.382;2023-04-27T02:26:25;93873.31;;;9.24;50.68
7768;BME280;3928;42.626;23.382;2023-04-27T02:28:54;93883.13;;;9.46;49.26
7768;BME280;3928;42.626;23.382;2023-04-27T02:31:22;93883.88;;;9.52;49.69
7768;BME280;3928;42.626;23.382;2023-04-27T02:33:50;93891.66;;;9.48;49.07
7768;BME280;3928;42.626;23.382;2023-04-27T02:36:17;93855.09;;;9.40;50.32
7768;BME280;3928;42.626;23.382;2023-04-27T02:38:44;93875.84;;;9.69;49.54
7768;BME280;3928;42.626;23.382;2023-04-27T02:41:10;93877.66;;;9.64;48.93
7768;BME280;3928;42.626;23.382;2023-04-27T02:43:37;93886.81;;;9.76;49.20
7768;BME280;3928;42.626;23.382;2023-04-27T02:46:04;93874.03;;;9.74;49.11
7768;BME280;3928;42.626;23.382;2023-04-27T02:48:31;93878.34;;;9.71;48.51
7768;BME280;3928;42.626;23.382;2023-04-27T02:51:02;93892.09;;;9.68;48.90
7768;BME280;3928;42.626;23.382;2023-04-27T02:53:29;93890.88;;;9.86;49.14
7768;BME280;3928;42.626;23.382;2023-04-27T02:55:57;93890.84;;;9.87;48.31
7768;BME280;3928;42.626;23.382;2023-04-27T02:58:24;93891.03;;;9.78;48.39
7768;BME280;3928;42.626;23.382;2023-04-27T03:00:54;93894.78;;;9.62;48.31
7768;BME280;3928;42.626;23.382;2023-04-27T03:03:21;93890.56;;;9.58;48.76
7768;BME280;3928;42.626;23.382;2023-04-27T03:05:49;93903.44;;;9.55;48.52
7768;BME280;3928;42.626;23.382;2023-04-27T03:08:17;93892.31;;;9.56;48.86
7768;BME280;3928;42.626;23.382;2023-04-27T03:10:44;93908.41;;;9.64;48.04
7768;BME280;3928;42.626;23.382;2023-04-27T03:13:11;93916.19;;;9.59;48.38
7768;BME280;3928;42.626;23.382;2023-04-27T03:15:39;93890.81;;;9.47;49.34
7768;BME280;3928;42.626;23.382;2023-04-27T03:18:06;93916.53;;;9.40;49.48
7768;BME280;3928;42.626;23.382;2023-04-27T03:20:33;93910.38;;;9.50;48.04
7768;BME280;3928;42.626;23.382;2023-04-27T03:22:59;93915.50;;;9.50;48.18
7768;BME280;3928;42.626;23.382;2023-04-27T03:25:28;93917.22;;;9.49;48.22
7768;BME280;3928;42.626;23.382;2023-04-27T03:27:54;93919.34;;;9.72;47.90
7768;BME280;3928;42.626;23.382;2023-04-27T03:30:21;93923.59;;;9.73;48.64
7768;BME280;3928;42.626;23.382;2023-04-27T03:32:48;93937.38;;;9.66;48.04
7768;BME280;3928;42.626;23.382;2023-04-27T03:35:15;93909.66;;;9.43;48.33
7768;BME280;3928;42.626;23.382;2023-04-27T03:37:42;93926.25;;;9.67;48.14
7768;BME280;3928;42.626;23.382;2023-04-27T03:40:11;93924.94;;;9.46;48.85
7768;BME280;3928;42.626;23.382;2023-04-27T03:42:40;93925.53;;;9.62;47.89
7768;BME280;3928;42.626;23.382;2023-04-27T03:45:07;93932.41;;;9.58;48.34
7768;BME280;3928;42.626;23.382;2023-04-27T03:47:36;93937.72;;;9.49;48.75
7768;BME280;3928;42.626;23.382;2023-04-27T03:50:04;93934.34;;;9.46;48.77
7768;BME280;3928;42.626;23.382;2023-04-27T03:52:31;93933.50;;;9.45;48.20
7768;BME280;3928;42.626;23.382;2023-04-27T03:54:58;93934.34;;;9.47;48.21
7768;BME280;3928;42.626;23.382;2023-04-27T03:57:24;93934.91;;;9.63;47.64
7768;BME280;3928;42.626;23.382;2023-04-27T03:59:53;93938.69;;;9.42;47.59
7768;BME280;3928;42.626;23.382;2023-04-27T04:02:19;93957.31;;;9.52;47.28
7768;BME280;3928;42.626;23.382;2023-04-27T04:04:47;93935.94;;;9.53;48.45
7768;BME280;3928;42.626;23.382;2023-04-27T04:07:14;93959.28;;;9.37;47.79
7768;BME280;3928;42.626;23.382;2023-04-27T04:09:41;93966.75;;;9.47;47.82
7768;BME280;3928;42.626;23.382;2023-04-27T04:12:08;93959.63;;;9.64;46.93
7768;BME280;3928;42.626;23.382;2023-04-27T04:14:35;93960.53;;;9.61;47.22
7768;BME280;3928;42.626;23.382;2023-04-27T04:17:03;93969.72;;;9.73;46.98
7768;BME280;3928;42.626;23.382;2023-04-27T04:19:30;93975.09;;;9.58;47.07
7768;BME280;3928;42.626;23.382;2023-04-27T04:21:56;93974.22;;;9.59;47.54
7768;BME280;3928;42.626;23.382;2023-04-27T04:24:23;93970.59;;;9.71;53.81
7768;BME280;3928;42.626;23.382;2023-04-27T04:26:50;93978.28;;;9.72;49.31
7768;BME280;3928;42.626;23.382;2023-04-27T04:29:17;93980.75;;;10.20;58.20
7768;BME280;3928;42.626;23.382;2023-04-27T04:31:44;93974.94;;;10.53;50.57
7768;BME280;3928;42.626;23.382;2023-04-27T04:34:12;93982.75;;;10.86;45.87
7768;BME280;3928;42.626;23.382;2023-04-27T04:36:40;93972.94;;;11.03;45.83
7768;BME280;3928;42.626;23.382;2023-04-27T04:39:07;93982.19;;;11.10;46.20
7768;BME280;3928;42.626;23.382;2023-04-27T04:41:33;93982.97;;;11.48;43.91
7768;BME280;3928;42.626;23.382;2023-04-27T04:44:00;93989.72;;;11.18;42.93
7768;BME280;3928;42.626;23.382;2023-04-27T04:46:27;93993.13;;;10.81;42.69
7768;BME280;3928;42.626;23.382;2023-04-27T04:48:54;93986.47;;;10.73;43.89
7768;BME280;3928;42.626;23.382;2023-04-27T04:51:23;93997.34;;;10.45;44.38
7768;BME280;3928;42.626;23.382;2023-04-27T04:53:49;94007.06;;;10.30;47.37
7768;BME280;3928;42.626;23.382;2023-04-27T04:56:16;94006.38;;;10.23;45.48
7768;BME280;3928;42.626;23.382;2023-04-27T04:58:43;94016.47;;;10.29;45.05
7768;BME280;3928;42.626;23.382;2023-04-27T05:01:10;94020.97;;;10.16;45.14
7768;BME280;3928;42.626;23.382;2023-04-27T05:03:37;94017.47;;;10.23;45.30
7768;BME280;3928;42.626;23.382;2023-04-27T05:06:05;94028.59;;;10.22;44.93
7768;BME280;3928;42.626;23.382;2023-04-27T05:08:33;94030.66;;;10.02;45.92
7768;BME280;3928;42.626;23.382;2023-04-27T05:11:00;94023.38;;;10.27;45.81
7768;BME280;3928;42.626;23.382;2023-04-27T05:13:27;94024.19;;;10.29;45.85
7768;BME280;3928;42.626;23.382;2023-04-27T05:15:54;94026.84;;;10.24;45.25
7768;BME280;3928;42.626;23.382;2023-04-27T05:18:20;94034.88;;;10.05;45.60
7768;BME280;3928;42.626;23.382;2023-04-27T05:20:47;94037.91;;;10.27;44.84
7768;BME280;3928;42.626;23.382;2023-04-27T05:23:16;94036.00;;;10.36;44.68
7768;BME280;3928;42.626;23.382;2023-04-27T05:25:44;94036.19;;;10.27;44.78
7768;BME280;3928;42.626;23.382;2023-04-27T05:28:11;94033.38;;;10.39;45.05
7768;BME280;3928;42.626;23.382;2023-04-27T05:30:38;94018.19;;;10.30;45.34
7768;BME280;3928;42.626;23.382;2023-04-27T05:33:05;94034.19;;;10.43;45.33
7768;BME280;3928;42.626;23.382;2023-04-27T05:38:08;94026.69;;;10.32;45.07
7768;BME280;3928;42.626;23.382;2023-04-27T05:40:34;94040.00;;;10.49;44.74
7768;BME280;3928;42.626;23.382;2023-04-27T05:43:03;94035.53;;;10.59;46.84
7768;BME280;3928;42.626;23.382;2023-04-27T05:45:29;94035.72;;;10.50;44.82
7768;BME280;3928;42.626;23.382;2023-04-27T05:47:56;94040.75;;;10.56;44.27
7768;BME280;3928;42.626;23.382;2023-04-27T05:50:23;94043.53;;;10.45;45.80
7768;BME280;3928;42.626;23.382;2023-04-27T05:52:50;94041.41;;;10.64;45.16
7768;BME280;3928;42.626;23.382;2023-04-27T05:55:17;94011.75;;;10.51;45.79
7768;BME280;3928;42.626;23.382;2023-04-27T05:57:43;94059.69;;;10.04;46.44
7768;BME280;3928;42.626;23.382;2023-04-27T06:00:13;94043.97;;;10.24;45.29
7768;BME280;3928;42.626;23.382;2023-04-27T06:02:41;94043.59;;;10.41;46.06
7768;BME280;3928;42.626;23.382;2023-04-27T06:05:08;94040.63;;;10.61;49.55
7768;BME280;3928;42.626;23.382;2023-04-27T06:07:35;94036.47;;;10.57;44.99
7768;BME280;3928;42.626;23.382;2023-04-27T06:10:03;94041.09;;;10.38;45.56
7768;BME280;3928;42.626;23.382;2023-04-27T06:12:30;94042.41;;;10.59;45.22
7768;BME280;3928;42.626;23.382;2023-04-27T06:14:57;94043.53;;;10.45;45.74
7768;BME280;3928;42.626;23.382;2023-04-27T06:17:25;94036.22;;;10.67;45.92
7768;BME280;3928;42.626;23.382;2023-04-27T06:19:52;94046.06;;;10.87;44.55
7768;BME280;3928;42.626;23.382;2023-04-27T06:22:19;94029.59;;;10.96;44.72
7768;BME280;3928;42.626;23.382;2023-04-27T06:24:46;94037.97;;;10.67;44.54
7768;BME280;3928;42.626;23.382;2023-04-27T06:27:12;94055.09;;;10.65;44.95
7768;BME280;3928;42.626;23.382;2023-04-27T06:29:39;94053.41;;;10.64;45.17
7768;BME280;3928;42.626;23.382;2023-04-27T06:32:06;94048.47;;;10.54;45.73
7768;BME280;3928;42.626;23.382;2023-04-27T06:34:34;94050.16;;;10.56;45.66
7768;BME280;3928;42.626;23.382;2023-04-27T06:37:01;94053.50;;;10.59;46.60
7768;BME280;3928;42.626;23.382;2023-04-27T06:39:28;94035.25;;;10.73;46.23
7768;BME280;3928;42.626;23.382;2023-04-27T06:41:56;94055.31;;;10.94;45.83
7768;BME280;3928;42.626;23.382;2023-04-27T06:44:23;94045.50;;;11.11;44.94
7768;BME280;3928;42.626;23.382;2023-04-27T06:46:50;94041.31;;;11.07;45.24
7768;BME280;3928;42.626;23.382;2023-04-27T06:49:17;94055.38;;;11.30;44.70
7768;BME280;3928;42.626;23.382;2023-04-27T06:51:45;94043.31;;;11.32;44.24
7768;BME280;3928;42.626;23.382;2023-04-27T06:54:12;94046.19;;;11.55;44.66
7768;BME280;3928;42.626;23.382;2023-04-27T06:56:38;94040.66;;;11.70;43.01
7768;BME280;3928;42.626;23.382;2023-04-27T06:59:06;94051.44;;;11.86;43.67
7768;BME280;3928;42.626;23.382;2023-04-27T07:01:34;94038.69;;;11.82;42.66
7768;BME280;3928;42.626;23.382;2023-04-27T07:04:01;94050.09;;;12.04;42.32
7768;BME280;3928;42.626;23.382;2023-04-27T07:06:28;94043.69;;;12.19;42.60
7768;BME280;3928;42.626;23.382;2023-04-27T07:08:57;94028.94;;;12.25;42.05
7768;BME280;3928;42.626;23.382;2023-04-27T07:11:24;94046.13;;;12.54;41.75
7768;BME280;3928;42.626;23.382;2023-04-27T07:13:51;94038.41;;;12.56;41.05
7768;BME280;3928;42.626;23.382;2023-04-27T07:16:18;94047.81;;;12.57;41.01
7768;BME280;3928;42.626;23.382;2023-04-27T07:18:45;94036.44;;;12.64;41.60
7768;BME280;3928;42.626;23.382;2023-04-27T07:21:11;94039.09;;;12.91;41.16
7768;BME280;3928;42.626;23.382;2023-04-27T07:23:39;94042.47;;;12.93;40.62
7768;BME280;3928;42.626;23.382;2023-04-27T07:26:07;94036.84;;;12.80;40.13
7768;BME280;3928;42.626;23.382;2023-04-27T07:28:35;94034.59;;;12.97;40.35
7768;BME280;3928;42.626;23.382;2023-04-27T07:31:03;94039.31;;;13.11;39.63
7768;BME280;3928;42.626;23.382;2023-04-27T07:33:30;94034.66;;;13.24;39.83
7768;BME280;3928;42.626;23.382;2023-04-27T07:35:57;94046.53;;;13.29;39.12
7768;BME280;3928;42.626;23.382;2023-04-27T07:38:24;94038.41;;;13.41;39.81
7768;BME280;3928;42.626;23.382;2023-04-27T07:40:53;94038.63;;;13.62;39.28
7768;BME280;3928;42.626;23.382;2023-04-27T07:43:21;94039.66;;;13.56;38.83
7768;BME280;3928;42.626;23.382;2023-04-27T07:45:50;94034.03;;;13.43;39.12
7768;BME280;3928;42.626;23.382;2023-04-27T07:48:16;94032.66;;;13.33;39.52
7768;BME280;3928;42.626;23.382;2023-04-27T07:50:44;94005.06;;;13.63;39.41
7768;BME280;3928;42.626;23.382;2023-04-27T07:53:11;94015.66;;;14.29;38.03
7768;BME280;3928;42.626;23.382;2023-04-27T07:55:37;94043.22;;;14.77;37.02
7768;BME280;3928;42.626;23.382;2023-04-27T07:58:05;94040.19;;;14.66;36.35
7768;BME280;3928;42.626;23.382;2023-04-27T08:00:33;94039.22;;;14.20;36.94
7768;BME280;3928;42.626;23.382;2023-04-27T08:03:00;94015.69;;;13.79;37.79
7768;BME280;3928;42.626;23.382;2023-04-27T08:05:27;94034.94;;;14.19;36.91
7768;BME280;3928;42.626;23.382;2023-04-27T08:07:54;94040.03;;;14.47;36.70
7768;BME280;3928;42.626;23.382;2023-04-27T08:10:21;94037.50;;;13.69;37.63
7768;BME280;3928;42.626;23.382;2023-04-27T08:12:47;94045.91;;;13.75;37.86
7768;BME280;3928;42.626;23.382;2023-04-27T08:15:14;94043.78;;;13.62;38.04
7768;BME280;3928;42.626;23.382;2023-04-27T08:17:42;94036.03;;;14.13;37.62
7768;BME280;3928;42.626;23.382;2023-04-27T08:20:10;94043.41;;;14.24;37.36
7768;BME280;3928;42.626;23.382;2023-04-27T08:22:37;94042.25;;;14.31;36.12
7768;BME280;3928;42.626;23.382;2023-04-27T08:25:05;94037.00;;;14.34;36.28
7768;BME280;3928;42.626;23.382;2023-04-27T08:27:33;94032.16;;;14.50;35.95
7768;BME280;3928;42.626;23.382;2023-04-27T08:30:02;94046.13;;;14.44;35.89
7768;BME280;3928;42.626;23.382;2023-04-27T08:32:29;94020.00;;;14.03;35.84
7768;BME280;3928;42.626;23.382;2023-04-27T08:34:57;94049.28;;;14.02;38.73
7768;BME280;3928;42.626;23.382;2023-04-27T08:37:24;94030.75;;;13.91;36.82
7768;BME280;3928;42.626;23.382;2023-04-27T08:39:50;94038.97;;;14.02;38.28
7768;BME280;3928;42.626;23.382;2023-04-27T08:42:17;94035.28;;;14.10;37.33
7768;BME280;3928;42.626;23.382;2023-04-27T08:44:44;94040.50;;;14.33;37.14
7768;BME280;3928;42.626;23.382;2023-04-27T08:47:11;94042.19;;;14.34;37.02
7768;BME280;3928;42.626;23.382;2023-04-27T08:49:38;94035.78;;;13.94;40.14
7768;BME280;3928;42.626;23.382;2023-04-27T08:52:11;94049.59;;;13.93;38.35
7768;BME280;3928;42.626;23.382;2023-04-27T08:54:39;94041.28;;;14.10;37.65
7768;BME280;3928;42.626;23.382;2023-04-27T08:57:09;94041.06;;;14.16;37.59
7768;BME280;3928;42.626;23.382;2023-04-27T08:59:37;94033.03;;;14.00;37.80
7768;BME280;3928;42.626;23.382;2023-04-27T09:02:04;94036.00;;;13.88;38.71
7768;BME280;3928;42.626;23.382;2023-04-27T09:04:38;94028.84;;;13.96;37.88
7768;BME280;3928;42.626;23.382;2023-04-27T09:07:14;94031.13;;;14.05;38.29
7768;BME280;3928;42.626;23.382;2023-04-27T09:09:41;94039.97;;;14.48;37.28
7768;BME280;3928;42.626;23.382;2023-04-27T09:12:15;94033.13;;;14.71;37.02
7768;BME280;3928;42.626;23.382;2023-04-27T09:14:43;94036.91;;;15.07;36.58
7768;BME280;3928;42.626;23.382;2023-04-27T09:17:24;94033.53;;;15.27;35.94
7768;BME280;3928;42.626;23.382;2023-04-27T09:19:51;94035.91;;;15.55;35.11
7768;BME280;3928;42.626;23.382;2023-04-27T09:22:20;94026.41;;;15.34;34.66
7768;BME280;3928;42.626;23.382;2023-04-27T09:24:50;94020.19;;;14.94;34.72
7768;BME280;3928;42.626;23.382;2023-04-27T09:27:19;94022.09;;;14.89;35.45
7768;BME280;3928;42.626;23.382;2023-04-27T09:29:47;94026.53;;;15.09;35.63
7768;BME280;3928;42.626;23.382;2023-04-27T09:32:14;94024.81;;;15.73;35.51
7768;BME280;3928;42.626;23.382;2023-04-27T09:34:42;94026.16;;;16.24;33.15
7768;BME280;3928;42.626;23.382;2023-04-27T09:37:09;93926.13;;;16.03;33.00
7768;BME280;3928;42.626;23.382;2023-04-27T09:39:37;94016.53;;;16.86;31.95
7768;BME280;3928;42.626;23.382;2023-04-27T09:42:04;93929.00;;;16.74;32.95
7768;BME280;3928;42.626;23.382;2023-04-27T09:44:32;93987.47;;;17.34;31.60
7768;BME280;3928;42.626;23.382;2023-04-27T09:47:00;94000.09;;;17.59;31.05
7768;BME280;3928;42.626;23.382;2023-04-27T09:49:27;94002.44;;;16.91;31.06
7768;BME280;3928;42.626;23.382;2023-04-27T09:51:54;94001.78;;;16.49;31.76
7768;BME280;3928;42.626;23.382;2023-04-27T09:54:25;93991.22;;;15.94;32.37
7768;BME280;3928;42.626;23.382;2023-04-27T09:57:03;94008.56;;;16.12;32.25
7768;BME280;3928;42.626;23.382;2023-04-27T09:59:42;94000.88;;;16.29;32.68
7768;BME280;3928;42.626;23.382;2023-04-27T10:02:12;93992.50;;;16.43;33.04
7768;BME280;3928;42.626;23.382;2023-04-27T10:04:55;93996.22;;;16.77;32.72
7768;BME280;3928;42.626;23.382;2023-04-27T10:07:28;93998.31;;;16.87;32.60
7768;BME280;3928;42.626;23.382;2023-04-27T10:10:00;93979.13;;;16.91;31.18
7768;BME280;3928;42.626;23.382;2023-04-27T10:12:32;93998.00;;;17.31;31.38
7768;BME280;3928;42.626;23.382;2023-04-27T10:15:12;93996.44;;;17.27;32.52
7768;BME280;3928;42.626;23.382;2023-04-27T10:17:46;93987.00;;;17.26;30.68
7768;BME280;3928;42.626;23.382;2023-04-27T10:20:13;93978.09;;;17.85;29.97
7768;BME280;3928;42.626;23.382;2023-04-27T10:22:41;93993.66;;;18.20;30.86
7768;BME280;3928;42.626;23.382;2023-04-27T10:25:14;93989.06;;;18.25;28.86
7768;BME280;3928;42.626;23.382;2023-04-27T10:27:47;93994.34;;;18.23;28.39
7768;BME280;3928;42.626;23.382;2023-04-27T10:30:17;93990.13;;;18.21;28.51
7768;BME280;3928;42.626;23.382;2023-04-27T10:32:52;93984.63;;;18.27;28.95
7768;BME280;3928;42.626;23.382;2023-04-27T10:35:20;93984.34;;;18.16;29.09
7768;BME280;3928;42.626;23.382;2023-04-27T10:37:47;93991.50;;;18.28;29.10
7768;BME280;3928;42.626;23.382;2023-04-27T10:40:16;93957.91;;;18.07;29.16
7768;BME280;3928;42.626;23.382;2023-04-27T10:42:45;93988.66;;;18.32;29.46
7768;BME280;3928;42.626;23.382;2023-04-27T10:45:13;93977.22;;;17.67;29.17
7768;BME280;3928;42.626;23.382;2023-04-27T10:47:56;93989.03;;;17.92;29.29
7768;BME280;3928;42.626;23.382;2023-04-27T10:50:24;93989.25;;;18.04;29.26
7768;BME280;3928;42.626;23.382;2023-04-27T10:52:51;93984.44;;;18.14;29.21
7768;BME280;3928;42.626;23.382;2023-04-27T10:55:19;93971.28;;;18.50;29.92
7768;BME280;3928;42.626;23.382;2023-04-27T10:57:49;93987.72;;;18.51;28.40
7768;BME280;3928;42.626;23.382;2023-04-27T11:00:22;93976.38;;;18.19;28.37
7768;BME280;3928;42.626;23.382;2023-04-27T11:02:50;93992.66;;;17.34;29.83
7768;BME280;3928;42.626;23.382;2023-04-27T11:05:17;93972.59;;;16.64;30.00
7768;BME280;3928;42.626;23.382;2023-04-27T11:07:44;93979.84;;;16.76;29.90
7768;BME280;3928;42.626;23.382;2023-04-27T11:10:14;93988.38;;;16.78;30.50
7768;BME280;3928;42.626;23.382;2023-04-27T11:12:42;93965.03;;;16.97;31.09
7768;BME280;3928;42.626;23.382;2023-04-27T11:15:11;93962.94;;;17.41;30.35
7768;BME280;3928;42.626;23.382;2023-04-27T11:17:40;93972.91;;;17.85;28.77
7768;BME280;3928;42.626;23.382;2023-04-27T11:20:08;93943.13;;;17.92;28.52
7768;BME280;3928;42.626;23.382;2023-04-27T11:22:42;93974.72;;;18.18;27.78
7768;BME280;3928;42.626;23.382;2023-04-27T11:25:10;93986.72;;;17.49;28.63
7768;BME280;3928;42.626;23.382;2023-04-27T11:27:37;93984.16;;;17.13;28.96
7768;BME280;3928;42.626;23.382;2023-04-27T11:30:05;93987.75;;;16.53;29.62
7768;BME280;3928;42.626;23.382;2023-04-27T11:32:34;93988.31;;;16.41;29.68
7768;BME280;3928;42.626;23.382;2023-04-27T11:35:01;93800.81;;;14.88;30.66
7768;BME280;3928;42.626;23.382;2023-04-27T11:37:29;93993.41;;;16.03;30.22
7768;BME280;3928;42.626;23.382;2023-04-27T11:39:58;93961.59;;;15.81;30.98
7768;BME280;3928;42.626;23.382;2023-04-27T11:42:26;93980.94;;;16.31;30.54
7768;BME280;3928;42.626;23.382;2023-04-27T11:44:55;93993.34;;;16.44;31.10
7768;BME280;3928;42.626;23.382;2023-04-27T11:47:23;93983.91;;;16.43;31.35
7768;BME280;3928;42.626;23.382;2023-04-27T11:49:57;93996.22;;;16.77;31.26
7768;BME280;3928;42.626;23.382;2023-04-27T11:52:27;93992.75;;;17.14;30.47
7768;BME280;3928;42.626;23.382;2023-04-27T11:54:54;93991.56;;;17.21;30.16
7768;BME280;3928;42.626;23.382;2023-04-27T11:57:23;93957.69;;;16.88;29.70
7768;BME280;3928;42.626;23.382;2023-04-27T11:59:52;93988.56;;;16.92;29.90
7768;BME280;3928;42.626;23.382;2023-04-27T12:02:19;93977.56;;;16.69;30.24
7768;BME280;3928;42.626;23.382;2023-04-27T12:04:46;94009.25;;;16.55;30.63
7768;BME280;3928;42.626;23.382;2023-04-27T12:07:15;93995.72;;;16.69;30.76
7768;BME280;3928;42.626;23.382;2023-04-27T12:09:43;94004.19;;;16.91;30.96
7768;BME280;3928;42.626;23.382;2023-04-27T12:12:11;93992.22;;;17.07;30.17
7768;BME280;3928;42.626;23.382;2023-04-27T12:14:39;94001.38;;;17.33;29.64
7768;BME280;3928;42.626;23.382;2023-04-27T12:17:06;93995.91;;;17.20;29.55
7768;BME280;3928;42.626;23.382;2023-04-27T12:19:33;94006.31;;;17.02;29.84
7768;BME280;3928;42.626;23.382;2023-04-27T12:22:01;94008.63;;;17.08;29.73
7768;BME280;3928;42.626;23.382;2023-04-27T12:24:30;94020.97;;;16.84;30.20
7768;BME280;3928;42.626;23.382;2023-04-27T12:26:57;94018.16;;;16.88;30.26
7768;BME280;3928;42.626;23.382;2023-04-27T12:29:24;94009.25;;;16.94;30.53
7768;BME280;3928;42.626;23.382;2023-04-27T12:31:50;94005.91;;;16.73;30.91
7768;BME280;3928;42.626;23.382;2023-04-27T12:34:17;94013.75;;;16.72;30.80
7768;BME280;3928;42.626;23.382;2023-04-27T12:36:44;94012.69;;;16.55;29.94
7768;BME280;3928;42.626;23.382;2023-04-27T12:39:12;94020.22;;;16.41;30.52
7768;BME280;3928;42.626;23.382;2023-04-27T12:41:41;94016.56;;;16.26;30.50
7768;BME280;3928;42.626;23.382;2023-04-27T12:44:08;94016.44;;;15.89;31.00
7768;BME280;3928;42.626;23.382;2023-04-27T12:46:35;94006.81;;;15.92;31.05
7768;BME280;3928;42.626;23.382;2023-04-27T12:49:02;94011.13;;;15.92;31.23
7768;BME280;3928;42.626;23.382;2023-04-27T12:51:30;93997.44;;;15.90;31.90
7768;BME280;3928;42.626;23.382;2023-04-27T12:53:57;94012.44;;;16.02;31.43
7768;BME280;3928;42.626;23.382;2023-04-27T12:56:24;94011.97;;;15.92;32.09
7768;BME280;3928;42.626;23.382;2023-04-27T12:58:53;94006.19;;;15.86;32.33
7768;BME280;3928;42.626;23.382;2023-04-27T13:01:19;94014.16;;;15.81;32.75
7768;BME280;3928;42.626;23.382;2023-04-27T13:03:50;94016.50;;;15.87;32.39
7768;BME280;3928;42.626;23.382;2023-04-27T13:06:17;93995.41;;;15.76;32.24
7768;BME280;3928;42.626;23.382;2023-04-27T13:08:44;94007.97;;;15.65;31.99
7768;BME280;3928;42.626;23.382;2023-04-27T13:11:11;94006.22;;;15.65;32.00
7768;BME280;3928;42.626;23.382;2023-04-27T13:13:37;93983.06;;;15.40;32.38
7768;BME280;3928;42.626;23.382;2023-04-27T13:16:07;94011.56;;;15.61;32.11
7768;BME280;3928;42.626;23.382;2023-04-27T13:18:33;94018.50;;;15.81;32.14